Time;durP1;ratioP1;P1;durP2;ratioP2;P2;SDS_P1;SDS_P2;PMS_P1;PMS_P2;Temp;Humidity;BMP_temperature;BMP_pressure;BME280_temperature;BME280_humidity;BME280_pressure;Samples;Min_cycle;Max_cycle;Signal;HPM_P1;HPM_P2
2024/02/20 00:00:43;;;;;;;0.10;0.10;;;;;;;11.50;70.42;101984.91;7356288;19;20756;-61
2024/02/20 00:03:08;;;;;;;0.10;0.10;;;;;;;11.46;70.59;101982.38;7356929;19;19998;-61
2024/02/20 00:05:34;;;;;;;0.10;0.10;;;;;;;11.49;70.70;101980.56;7361125;19;20521;-61
2024/02/20 00:08:02;;;;;;;0.10;0.10;;;;;;;11.39;70.79;101965.81;7354084;19;20007;-61
2024/02/20 00:10:29;;;;;;;0.10;0.10;;;;;;;11.44;70.79;101980.59;7363579;19;20041;-61
2024/02/20 00:12:57;;;;;;;0.10;0.10;;;;;;;11.46;70.51;101979.75;7360486;19;20010;-62
2024/02/20 00:15:22;;;;;;;0.10;0.10;;;;;;;11.38;70.54;101957.09;7362025;19;20014;-60
2024/02/20 00:17:48;;;;;;;0.10;0.10;;;;;;;11.41;70.23;101966.69;7360914;19;20030;-60
2024/02/20 00:20:13;;;;;;;0.10;0.10;;;;;;;11.39;70.33;101961.44;7359850;19;20018;-60
2024/02/20 00:22:39;;;;;;;0.10;0.10;;;;;;;11.41;70.14;101964.06;7359570;19;20010;-61
2024/02/20 00:25:04;;;;;;;0.10;0.10;;;;;;;11.40;70.64;101967.53;7359259;19;20053;-61
2024/02/20 00:27:31;;;;;;;0.10;0.10;;;;;;;11.38;70.59;101954.47;7359515;19;20349;-61
2024/02/20 00:29:57;;;;;;;0.10;0.10;;;;;;;11.33;70.59;101945.81;7362427;19;20089;-63
2024/02/20 00:32:22;;;;;;;0.10;0.10;;;;;;;11.08;69.89;101898.00;7356570;19;20090;-62
2024/02/20 00:34:48;;;;;;;0.10;0.10;;;;;;;11.35;70.40;101940.53;7366529;19;20936;-63
2024/02/20 00:37:15;;;;;;;0.10;0.10;;;;;;;11.31;70.83;101947.56;7366336;19;20010;-61
2024/02/20 00:39:41;;;;;;;0.10;0.10;;;;;;;11.20;70.78;101930.19;7360036;19;20010;-62
2024/02/20 00:42:07;;;;;;;0.10;0.10;;;;;;;11.30;70.89;101948.41;7369139;19;20017;-62
2024/02/20 00:44:33;;;;;;;0.00;0.00;;;;;;;11.29;70.35;101935.38;7369670;19;20490;-61
2024/02/20 00:46:58;;;;;;;0.20;0.20;;;;;;;11.27;70.60;101924.06;7366398;19;20449;-61
2024/02/20 00:49:24;;;;;;;0.10;0.10;;;;;;;11.15;70.31;101904.97;7367043;19;20014;-61
2024/02/20 00:51:50;;;;;;;0.10;0.10;;;;;;;11.21;70.67;101921.47;7367563;19;20009;-62
2024/02/20 00:54:15;;;;;;;0.10;0.10;;;;;;;11.21;70.46;101922.34;7370920;19;20010;-61
2024/02/20 00:56:41;;;;;;;0.10;0.10;;;;;;;11.18;70.54;101918.00;7362725;19;20010;-61
2024/02/20 00:59:07;;;;;;;0.10;0.10;;;;;;;11.18;70.44;101923.22;7368740;19;20010;-61
2024/02/20 01:01:33;;;;;;;0.00;0.00;;;;;;;11.16;70.73;101911.91;7364036;19;20022;-62
2024/02/20 01:03:58;;;;;;;0.10;0.10;;;;;;;11.14;70.57;101886.66;7364748;19;20365;-62
2024/02/20 01:06:23;;;;;;;0.10;0.10;;;;;;;11.12;70.77;101883.19;7366459;19;20656;-61
2024/02/20 01:08:49;;;;;;;0.10;0.10;;;;;;;11.10;71.06;101875.34;7369370;19;20074;-61
2024/02/20 01:11:14;;;;;;;0.10;0.10;;;;;;;11.09;70.84;101881.44;7365770;19;20018;-61
2024/02/20 01:13:41;;;;;;;0.10;0.10;;;;;;;11.08;71.32;101898.00;7368058;19;20624;-62
2024/02/20 01:16:07;;;;;;;0.10;0.10;;;;;;;11.03;71.19;101886.72;7366796;19;20089;-62
2024/02/20 01:18:34;;;;;;;0.10;0.10;;;;;;;10.96;71.10;101882.41;7366373;19;20619;-61
2024/02/20 01:21:00;;;;;;;0.10;0.10;;;;;;;11.03;71.16;101901.53;7367005;19;20010;-61
2024/02/20 01:23:25;;;;;;;0.10;0.10;;;;;;;11.03;71.28;101898.91;7341519;19;20019;-60
2024/02/20 01:25:51;;;;;;;0.10;0.10;;;;;;;10.96;71.54;101892.84;7364515;19;20020;-61
2024/02/20 01:28:17;;;;;;;0.00;0.00;;;;;;;10.99;71.60;101892.81;7361571;19;20007;-61
2024/02/20 01:30:43;;;;;;;0.10;0.10;;;;;;;10.82;71.38;101868.53;7366067;19;20026;-61
2024/02/20 01:33:09;;;;;;;0.10;0.10;;;;;;;10.97;71.64;101886.75;7366929;19;20945;-62
2024/02/20 01:35:34;;;;;;;0.10;0.10;;;;;;;10.97;71.93;101881.53;7365866;19;20025;-61
2024/02/20 01:38:00;;;;;;;0.05;0.05;;;;;;;10.90;71.75;101872.84;7367393;19;20010;-61
2024/02/20 01:40:26;;;;;;;0.10;0.10;;;;;;;10.93;72.48;101856.28;7364599;19;20006;-61
2024/02/20 01:42:59;;;;;;;0.10;0.10;;;;;;;11.02;72.11;101861.44;7360741;19;20298;-61
2024/02/20 01:45:29;;;;;;;0.10;0.10;;;;;;;10.90;72.20;101838.88;7362376;19;20011;-61
2024/02/20 01:47:56;;;;;;;0.10;0.10;;;;;;;10.92;72.54;101838.88;7363268;19;20014;-61
2024/02/20 01:50:23;;;;;;;0.17;0.17;;;;;;;11.05;72.48;101853.59;7364002;19;20014;-61
2024/02/20 01:52:48;;;;;;;0.17;0.17;;;;;;;11.08;72.33;101845.72;7361344;19;20510;-61
2024/02/20 01:55:15;;;;;;;0.10;0.10;;;;;;;11.06;72.74;101828.34;7365830;19;20006;-61
2024/02/20 01:57:41;;;;;;;0.10;0.10;;;;;;;10.90;72.38;101797.06;7367155;19;20014;-60
2024/02/20 02:00:07;;;;;;;0.08;0.08;;;;;;;11.03;72.61;101816.13;7358201;19;20356;-62
2024/02/20 02:02:33;;;;;;;0.10;0.10;;;;;;;11.17;72.45;101835.22;7366331;19;20007;-61
2024/02/20 02:04:59;;;;;;;0.10;0.10;;;;;;;11.16;72.88;101825.63;7363500;19;20778;-61
2024/02/20 02:07:24;;;;;;;0.10;0.10;;;;;;;11.04;72.28;101783.88;7366458;19;20010;-61
2024/02/20 02:09:50;;;;;;;0.10;0.10;;;;;;;11.22;72.54;101805.56;7363707;19;20021;-62
2024/02/20 02:12:15;;;;;;;0.10;0.10;;;;;;;11.18;72.40;101794.25;7363819;19;20011;-60
2024/02/20 02:14:47;;;;;;;0.10;0.10;;;;;;;11.27;72.63;101798.53;7366397;19;20050;-61
2024/02/20 02:17:13;;;;;;;0.10;0.10;;;;;;;11.25;72.69;101795.06;7365549;19;20011;-61
2024/02/20 02:19:39;;;;;;;0.10;0.10;;;;;;;11.20;72.59;101786.38;7368908;19;20034;-61
2024/02/20 02:22:06;;;;;;;0.10;0.10;;;;;;;11.08;72.82;101759.47;7365718;19;20032;-61
2024/02/20 02:24:35;;;;;;;0.10;0.10;;;;;;;11.25;72.83;101779.38;7366814;19;20489;-61
2024/02/20 02:27:04;;;;;;;0.10;0.10;;;;;;;11.28;72.90;101779.34;7361560;19;20496;-61
2024/02/20 02:29:31;;;;;;;0.10;0.10;;;;;;;11.31;73.01;101779.34;7358327;19;20010;-62
2024/02/20 02:31:57;;;;;;;0.10;0.10;;;;;;;11.25;72.98;101761.06;7364552;19;20625;-61
2024/02/20 02:34:22;;;;;;;0.10;0.10;;;;;;;11.35;73.21;101781.03;7365201;19;20090;-62
2024/02/20 02:36:48;;;;;;;0.03;0.03;;;;;;;11.07;72.92;101721.13;7363151;19;20064;-61
2024/02/20 02:39:16;;;;;;;0.10;0.10;;;;;;;11.40;73.24;101779.22;7363008;19;20015;-61
2024/02/20 02:41:42;;;;;;;0.10;0.10;;;;;;;11.40;73.02;101768.78;7363390;19;20010;-61
2024/02/20 02:44:07;;;;;;;0.10;0.10;;;;;;;11.42;72.83;101756.56;7359613;19;20041;-61
2024/02/20 02:46:32;;;;;;;0.10;0.10;;;;;;;11.43;73.14;101751.31;7366674;19;20028;-61
2024/02/20 02:48:58;;;;;;;0.10;0.10;;;;;;;11.45;72.93;101730.38;7360099;19;20014;-61
2024/02/20 02:51:24;;;;;;;0.10;0.10;;;;;;;11.34;72.83;101709.56;7363566;19;20018;-61
2024/02/20 02:53:50;;;;;;;0.10;0.10;;;;;;;11.48;72.78;101730.34;7359825;19;19999;-61
2024/02/20 02:56:15;;;;;;;0.10;0.10;;;;;;;11.47;73.03;101717.28;7362707;19;20010;-61
2024/02/20 02:58:41;;;;;;;0.10;0.10;;;;;;;11.41;73.25;101713.00;7361213;19;20006;-61
2024/02/20 03:01:09;;;;;;;0.10;0.10;;;;;;;11.48;73.09;101704.19;7367545;19;20396;-61
2024/02/20 03:03:35;;;;;;;0.10;0.10;;;;;;;11.45;73.37;101701.59;7366634;19;20022;-61
2024/02/20 03:06:08;;;;;;;0.10;0.10;;;;;;;11.47;73.19;101689.38;7367485;19;20014;-61
2024/02/20 03:08:40;;;;;;;0.10;0.10;;;;;;;11.35;73.41;101666.84;7361732;19;20425;-62
2024/02/20 03:11:05;;;;;;;0.20;0.20;;;;;;;11.43;73.25;101661.53;7362243;19;20018;-61
2024/02/20 03:13:33;;;;;;;0.10;0.10;;;;;;;11.42;73.34;101655.44;7364680;19;20006;-61
2024/02/20 03:16:03;;;;;;;0.10;0.10;;;;;;;11.41;73.24;101655.47;7365907;19;20015;-61
2024/02/20 03:18:32;;;;;;;0.10;0.10;;;;;;;11.43;73.15;101648.44;7366027;19;20363;-61
2024/02/20 03:21:01;;;;;;;0.10;0.10;;;;;;;11.41;73.67;101637.16;7363817;19;20374;-62
2024/02/20 03:23:28;;;;;;;0.10;0.10;;;;;;;11.41;73.75;101639.78;7363501;19;20021;-61
2024/02/20 03:25:54;;;;;;;0.10;0.10;;;;;;;11.39;73.33;101636.28;7365493;19;20014;-61
2024/02/20 03:28:19;;;;;;;0.20;0.20;;;;;;;11.31;73.22;101612.00;7364509;19;20030;-61
2024/02/20 03:30:45;;;;;;;0.10;0.10;;;;;;;11.40;73.56;101612.75;7364413;19;20021;-61
2024/02/20 03:33:10;;;;;;;0.10;0.10;;;;;;;11.41;73.77;101611.00;7365380;19;20015;-62
2024/02/20 03:35:36;;;;;;;0.10;0.10;;;;;;;11.41;74.05;101608.38;7364512;19;20020;-61
2024/02/20 03:38:02;;;;;;;0.10;0.10;;;;;;;11.41;73.93;101595.31;7365926;19;20409;-61
2024/02/20 03:40:27;;;;;;;0.10;0.10;;;;;;;11.44;74.22;101597.88;7354847;19;20017;-60
2024/02/20 03:42:53;;;;;;;0.10;0.10;;;;;;;11.44;74.13;101588.28;7365014;19;20443;-61
2024/02/20 03:45:19;;;;;;;0.10;0.10;;;;;;;11.35;74.29;101559.63;7363930;19;20013;-62
2024/02/20 03:47:44;;;;;;;0.20;0.20;;;;;;;11.49;74.56;101569.91;7366008;19;20014;-60
2024/02/20 03:50:10;;;;;;;0.10;0.10;;;;;;;11.51;74.43;101576.00;7353764;19;20002;-62
2024/02/20 03:52:35;;;;;;;0.10;0.10;;;;;;;11.54;74.08;101581.19;7364775;19;20011;-61
2024/02/20 03:55:01;;;;;;;0.10;0.10;;;;;;;11.56;74.46;101570.72;7363981;19;20007;-62
2024/02/20 03:57:26;;;;;;;0.10;0.10;;;;;;;11.58;74.60;101561.94;7361499;19;20022;-61
2024/02/20 03:59:53;;;;;;;0.10;0.10;;;;;;;11.61;74.64;101553.22;7359438;19;20866;-61
2024/02/20 04:02:19;;;;;;;0.00;0.00;;;;;;;11.62;74.17;101555.78;7364798;19;20521;-60
2024/02/20 04:04:45;;;;;;;0.10;0.10;;;;;;;11.63;74.56;101578.44;7364639;19;20018;-61
2024/02/20 04:07:10;;;;;;;0.10;0.10;;;;;;;11.65;74.62;101566.19;7364957;19;20033;-61
2024/02/20 04:09:36;;;;;;;0.10;0.10;;;;;;;11.66;74.26;101562.72;7364214;19;20372;-61
2024/02/20 04:12:01;;;;;;;0.10;0.10;;;;;;;11.72;74.57;101567.00;7360679;19;20041;-61
2024/02/20 04:14:27;;;;;;;0.10;0.10;;;;;;;11.71;74.84;101554.81;7365832;19;20760;-61
2024/02/20 04:16:52;;;;;;;0.10;0.10;;;;;;;11.73;74.46;101563.50;7337244;19;20526;-61
2024/02/20 04:19:17;;;;;;;0.10;0.10;;;;;;;11.78;74.39;101563.44;7361936;19;20029;-61
2024/02/20 04:21:44;;;;;;;0.10;0.10;;;;;;;11.81;74.15;101553.81;7356959;19;20041;-61
2024/02/20 04:24:09;;;;;;;0.10;0.10;;;;;;;11.83;74.24;101552.06;7365285;19;20010;-61
2024/02/20 04:26:35;;;;;;;0.10;0.10;;;;;;;11.85;74.33;101545.03;7366886;19;20503;-61
2024/02/20 04:29:00;;;;;;;0.10;0.10;;;;;;;11.73;74.52;101510.31;7363460;19;20010;-61
2024/02/20 04:31:26;;;;;;;0.10;0.10;;;;;;;11.89;74.39;101532.78;7361050;19;20015;-61
2024/02/20 04:33:52;;;;;;;0.10;0.10;;;;;;;11.88;74.46;101531.06;7364834;19;20013;-61
2024/02/20 04:36:17;;;;;;;0.10;0.10;;;;;;;11.92;74.39;101543.22;7362253;19;20018;-61
2024/02/20 04:38:43;;;;;;;0.10;0.10;;;;;;;11.94;74.42;101517.88;7358807;19;20007;-61
2024/02/20 04:41:09;;;;;;;0.10;0.10;;;;;;;11.91;74.86;101505.72;7366342;19;20061;-61
2024/02/20 04:43:36;;;;;;;0.10;0.10;;;;;;;12.00;74.49;101530.84;7357741;19;20010;-61
2024/02/20 04:46:04;;;;;;;0.10;0.10;;;;;;;12.04;74.65;101515.97;7365963;19;20041;-61
2024/02/20 04:48:29;;;;;;;0.10;0.10;;;;;;;12.03;74.42;101496.78;7357856;19;20494;-61
2024/02/20 04:50:55;;;;;;;0.10;0.10;;;;;;;12.04;74.39;101495.03;7363941;19;20010;-61
2024/02/20 04:53:20;;;;;;;0.10;0.10;;;;;;;12.08;74.40;101500.19;7363608;19;20011;-61
2024/02/20 04:55:46;;;;;;;0.10;0.10;;;;;;;12.10;74.24;101505.41;7363466;19;20018;-61
2024/02/20 04:58:11;;;;;;;0.10;0.10;;;;;;;12.13;74.44;101494.88;7363926;19;20291;-61
2024/02/20 05:00:37;;;;;;;0.10;0.10;;;;;;;12.12;74.09;101494.03;7362584;19;20024;-61
2024/02/20 05:03:04;;;;;;;0.10;0.10;;;;;;;12.06;74.26;101493.25;7362277;19;20023;-61
2024/02/20 05:05:31;;;;;;;0.10;0.10;;;;;;;12.15;74.26;101499.19;7363675;19;20026;-62
2024/02/20 05:07:57;;;;;;;0.10;0.10;;;;;;;12.16;73.90;101505.28;7354027;19;20018;-60
2024/02/20 05:10:22;;;;;;;0.10;0.10;;;;;;;12.01;74.20;101474.97;7364213;19;20016;-60
2024/02/20 05:12:47;;;;;;;0.10;0.10;;;;;;;12.16;74.29;101486.97;7365553;19;20007;-61
2024/02/20 05:15:13;;;;;;;0.10;0.10;;;;;;;12.15;74.24;101446.81;7356739;19;20033;-61
2024/02/20 05:17:38;;;;;;;0.10;0.10;;;;;;;12.12;74.20;101467.84;7363086;19;20014;-61
2024/02/20 05:20:05;;;;;;;0.10;0.10;;;;;;;12.14;74.15;101471.28;7361470;19;20015;-61
2024/02/20 05:22:31;;;;;;;0.10;0.10;;;;;;;12.12;74.10;101483.56;7372405;19;20003;-61
2024/02/20 05:24:56;;;;;;;0.10;0.10;;;;;;;12.11;73.92;101476.56;7368321;19;20015;-61
2024/02/20 05:27:23;;;;;;;0.20;0.20;;;;;;;12.09;73.68;101483.59;7370667;19;20545;-61
2024/02/20 05:29:48;;;;;;;0.10;0.10;;;;;;;12.07;73.94;101464.44;7366784;19;20041;-61
2024/02/20 05:32:13;;;;;;;0.10;0.10;;;;;;;12.04;74.14;101469.72;7368491;19;20015;-62
2024/02/20 05:34:41;;;;;;;0.05;0.05;;;;;;;11.98;73.83;101448.88;7365558;19;20018;-62
2024/02/20 05:37:06;;;;;;;0.10;0.10;;;;;;;12.05;73.77;101462.72;7369608;19;20037;-62
2024/02/20 05:39:31;;;;;;;0.10;0.10;;;;;;;12.05;73.97;101450.50;7362143;19;20007;-61
2024/02/20 05:41:57;;;;;;;0.10;0.10;;;;;;;12.05;73.78;101452.25;7372400;19;20453;-61
2024/02/20 05:44:22;;;;;;;0.10;0.10;;;;;;;12.03;73.96;101443.56;7368736;19;20048;-60
2024/02/20 05:46:48;;;;;;;0.10;0.10;;;;;;;12.01;73.74;101459.28;7371074;19;20011;-62
2024/02/20 05:49:13;;;;;;;0.10;0.10;;;;;;;12.00;73.74;101457.56;7368292;19;20018;-61
2024/02/20 05:51:39;;;;;;;0.10;0.10;;;;;;;11.99;73.64;101441.88;7365944;19;20512;-61
2024/02/20 05:54:05;;;;;;;0.10;0.10;;;;;;;11.99;74.09;101447.13;7367996;19;20502;-61
2024/02/20 05:56:31;;;;;;;0.13;0.13;;;;;;;11.97;73.70;101447.16;7365414;19;20010;-61
2024/02/20 05:58:57;;;;;;;0.10;0.10;;;;;;;11.96;74.00;101442.78;7368236;19;20861;-61
2024/02/20 06:01:23;;;;;;;0.10;0.10;;;;;;;11.95;73.91;101436.69;7366209;19;20010;-62
2024/02/20 06:03:48;;;;;;;0.10;0.10;;;;;;;11.93;73.59;101438.47;7370122;19;20113;-62
2024/02/20 06:06:14;;;;;;;0.10;0.10;;;;;;;11.91;73.49;101447.22;7365794;19;20019;-61
2024/02/20 06:08:44;;;;;;;0.10;0.10;;;;;;;11.93;73.69;101432.38;7364912;19;20018;-61
2024/02/20 06:11:14;;;;;;;0.10;0.10;;;;;;;11.93;73.47;101420.16;7363228;19;20018;-61
2024/02/20 06:13:40;;;;;;;0.10;0.10;;;;;;;11.91;73.72;101407.97;7367940;19;20014;-61
2024/02/20 06:16:06;;;;;;;0.10;0.10;;;;;;;11.90;73.76;101398.41;7369024;19;20003;-61
2024/02/20 06:18:32;;;;;;;0.10;0.10;;;;;;;11.89;73.55;101387.06;7368645;19;21066;-61
2024/02/20 06:20:57;;;;;;;0.10;0.10;;;;;;;11.89;73.48;101401.91;7365278;19;20018;-61
2024/02/20 06:23:23;;;;;;;0.10;0.10;;;;;;;11.89;73.41;101409.75;7369520;19;20066;-61
2024/02/20 06:25:48;;;;;;;0.10;0.10;;;;;;;11.78;73.32;101403.81;7366096;19;20027;-61
2024/02/20 06:28:16;;;;;;;0.10;0.10;;;;;;;11.86;73.38;101404.56;7364778;19;20014;-61
2024/02/20 06:30:42;;;;;;;0.10;0.10;;;;;;;11.84;73.39;101414.22;7366071;19;20018;-61
2024/02/20 06:33:07;;;;;;;0.10;0.10;;;;;;;11.74;73.13;101399.50;7368257;19;20032;-62
2024/02/20 06:35:33;;;;;;;0.00;0.00;;;;;;;11.57;73.16;101374.50;7365400;19;20025;-61
2024/02/20 06:37:59;;;;;;;0.10;0.10;;;;;;;11.74;72.86;101391.66;7366600;19;20332;-61
2024/02/20 06:40:24;;;;;;;0.10;0.10;;;;;;;11.82;72.81;101410.78;7365508;19;20016;-61
2024/02/20 06:42:49;;;;;;;0.10;0.10;;;;;;;11.81;72.94;101404.63;7366588;19;20007;-61
2024/02/20 06:45:15;;;;;;;0.10;0.10;;;;;;;11.81;73.41;101416.84;7365515;19;20021;-62
2024/02/20 06:47:42;;;;;;;0.10;0.10;;;;;;;11.80;72.78;101404.66;7364609;19;20011;-62
2024/02/20 06:50:14;;;;;;;0.10;0.10;;;;;;;11.80;72.86;101396.78;7364315;19;20007;-61
2024/02/20 06:52:40;;;;;;;0.10;0.10;;;;;;;11.68;72.98;101376.94;7369246;19;20053;-61
2024/02/20 06:55:08;;;;;;;0.10;0.10;;;;;;;11.66;73.01;101370.88;7351315;19;20591;-61
2024/02/20 06:57:35;;;;;;;0.10;0.10;;;;;;;11.76;73.18;101380.31;7369401;19;20388;-61
2024/02/20 07:00:04;;;;;;;0.10;0.10;;;;;;;11.77;73.07;101376.78;7362186;19;20023;-61
2024/02/20 07:02:30;;;;;;;0.10;0.10;;;;;;;11.76;72.61;101376.78;7369525;19;20035;-61
2024/02/20 07:04:55;;;;;;;0.10;0.10;;;;;;;11.77;72.62;101382.03;7368146;19;20011;-61
2024/02/20 07:07:21;;;;;;;0.10;0.10;;;;;;;11.74;73.05;101360.28;7367939;19;20721;-60
2024/02/20 07:09:46;;;;;;;0.10;0.10;;;;;;;11.76;72.58;101376.78;7365669;19;20010;-61
2024/02/20 07:12:12;;;;;;;0.10;0.10;;;;;;;11.75;72.88;101362.00;7364700;19;20007;-60
2024/02/20 07:14:38;;;;;;;0.10;0.10;;;;;;;11.76;72.52;101366.31;7363922;19;20037;-61
2024/02/20 07:17:04;;;;;;;0.10;0.10;;;;;;;11.75;73.07;101377.69;7361604;19;20015;-61
2024/02/20 07:19:29;;;;;;;0.10;0.10;;;;;;;11.67;73.08;101373.47;7366424;19;20037;-61
2024/02/20 07:21:55;;;;;;;0.10;0.10;;;;;;;11.73;72.77;101375.09;7364461;19;20014;-64
2024/02/20 07:24:20;;;;;;;0.10;0.10;;;;;;;11.68;72.52;101367.34;7364064;19;20006;-61
2024/02/20 07:26:46;;;;;;;0.10;0.10;;;;;;;11.74;72.46;101383.81;7363866;19;20352;-61
2024/02/20 07:29:11;;;;;;;0.10;0.10;;;;;;;11.73;72.72;101369.00;7361804;19;20027;-60
2024/02/20 07:31:37;;;;;;;0.10;0.10;;;;;;;11.72;73.00;101372.53;7361828;19;20010;-61
2024/02/20 07:34:03;;;;;;;0.10;0.10;;;;;;;11.69;72.64;101363.81;7366833;19;20165;-60
2024/02/20 07:36:29;;;;;;;0.20;0.20;;;;;;;11.71;72.88;101376.91;7357854;19;20018;-61
2024/02/20 07:38:55;;;;;;;0.10;0.10;;;;;;;11.68;72.81;101369.94;7365339;19;20021;-61
2024/02/20 07:41:20;;;;;;;0.10;0.10;;;;;;;11.69;73.22;101369.06;7362281;19;20469;-61
2024/02/20 07:43:46;;;;;;;0.10;0.10;;;;;;;11.70;72.99;101365.53;7361072;19;20017;-61
2024/02/20 07:46:14;;;;;;;0.10;0.10;;;;;;;11.72;72.46;101372.53;7366423;19;20014;-61
2024/02/20 07:48:42;;;;;;;0.10;0.10;;;;;;;11.67;72.70;101360.38;7363573;19;20002;-61
2024/02/20 07:51:09;;;;;;;0.10;0.10;;;;;;;11.69;72.88;101373.44;7363738;19;20016;-61
2024/02/20 07:53:35;;;;;;;0.13;0.13;;;;;;;11.71;72.87;101369.06;7363640;19;20014;-61
2024/02/20 07:56:02;;;;;;;0.10;0.10;;;;;;;11.68;72.49;101362.09;7356941;19;20023;-61
2024/02/20 07:58:28;;;;;;;0.10;0.10;;;;;;;11.62;72.79;101351.75;7351826;19;20044;-61
2024/02/20 08:00:54;;;;;;;0.10;0.10;;;;;;;11.72;72.74;101362.91;7364824;19;20016;-60
2024/02/20 08:03:23;;;;;;;0.10;0.10;;;;;;;11.74;72.63;101360.28;7362135;19;19998;-61
2024/02/20 08:05:49;;;;;;;0.10;0.10;;;;;;;11.75;72.67;101356.75;7361764;19;20002;-61
2024/02/20 08:08:14;;;;;;;0.10;0.10;;;;;;;11.76;72.75;101346.28;7365717;19;20007;-61
2024/02/20 08:10:40;;;;;;;0.10;0.10;;;;;;;11.78;72.95;101361.94;7365543;19;20009;-62
2024/02/20 08:13:06;;;;;;;0.10;0.10;;;;;;;11.80;72.59;101360.16;7362213;19;20027;-60
2024/02/20 08:15:31;;;;;;;0.10;0.10;;;;;;;11.82;72.95;101350.59;7361345;19;20011;-61
2024/02/20 08:17:57;;;;;;;0.10;0.10;;;;;;;11.82;72.89;101340.13;7362400;19;20006;-61
2024/02/20 08:20:22;;;;;;;0.10;0.10;;;;;;;11.79;72.69;101332.28;7363515;19;20328;-61
2024/02/20 08:22:48;;;;;;;0.15;0.15;;;;;;;11.86;72.45;101331.28;7363633;19;20014;-63
2024/02/20 08:25:13;;;;;;;0.10;0.10;;;;;;;11.75;72.55;101299.19;7360281;19;20007;-61
2024/02/20 08:27:39;;;;;;;0.10;0.10;;;;;;;11.89;72.36;101329.50;7362431;19;20005;-61
2024/02/20 08:30:06;;;;;;;0.10;0.10;;;;;;;11.91;72.57;101322.50;7354532;19;20909;-61
2024/02/20 08:32:32;;;;;;;0.20;0.20;;;;;;;11.93;72.61;101325.06;7364294;19;20041;-61
2024/02/20 08:34:57;;;;;;;0.17;0.17;;;;;;;11.95;72.65;101323.28;7335374;19;20007;-62
2024/02/20 08:37:23;;;;;;;0.10;0.10;;;;;;;11.91;72.51;101324.22;7350212;19;20037;-61
2024/02/20 08:39:50;;;;;;;0.10;0.10;;;;;;;11.87;72.68;101315.59;7360226;19;20014;-61
2024/02/20 08:42:16;;;;;;;0.10;0.10;;;;;;;11.81;72.53;101304.31;7360514;19;20085;-61
2024/02/20 08:44:41;;;;;;;0.10;0.10;;;;;;;11.99;72.88;101322.34;7365531;19;20567;-60
2024/02/20 08:47:07;;;;;;;0.10;0.10;;;;;;;12.01;72.47;101312.69;7360286;19;20019;-63
2024/02/20 08:49:32;;;;;;;0.13;0.13;;;;;;;12.03;72.45;101320.53;7365592;19;20007;-61
2024/02/20 08:51:58;;;;;;;0.10;0.10;;;;;;;12.04;72.44;101319.63;7358030;19;20064;-61
2024/02/20 08:54:23;;;;;;;0.10;0.10;;;;;;;12.06;72.38;101325.69;7360510;19;21099;-61
2024/02/20 08:56:48;;;;;;;0.10;0.10;;;;;;;12.08;72.35;101303.84;7369325;19;20410;-62
2024/02/20 08:59:14;;;;;;;0.13;0.13;;;;;;;12.13;73.03;101307.25;7370361;19;20033;-61
2024/02/20 09:01:40;;;;;;;0.10;0.10;;;;;;;12.17;72.74;101302.81;7366840;19;20018;-62
2024/02/20 09:04:06;;;;;;;0.10;0.10;;;;;;;12.20;72.82;101298.34;7372832;19;20034;-62
2024/02/20 09:06:31;;;;;;;0.10;0.10;;;;;;;12.22;72.62;101290.50;7366191;19;20010;-61
2024/02/20 09:08:57;;;;;;;0.10;0.10;;;;;;;12.28;72.37;101277.28;7371788;19;20013;-60
2024/02/20 09:11:22;;;;;;;0.10;0.10;;;;;;;12.33;72.51;101282.41;7368916;19;20356;-61
2024/02/20 09:13:48;;;;;;;0.10;0.10;;;;;;;12.38;72.29;101275.31;7369779;19;20037;-61
2024/02/20 09:16:14;;;;;;;0.10;0.10;;;;;;;12.41;72.62;101285.72;7364909;19;20010;-62
2024/02/20 09:18:39;;;;;;;0.10;0.10;;;;;;;12.39;72.45;101280.53;7366658;19;20003;-61
2024/02/20 09:21:08;;;;;;;0.15;0.15;;;;;;;12.39;72.30;101272.66;7363184;19;20030;-60
2024/02/20 09:23:37;;;;;;;0.10;0.10;;;;;;;12.52;72.47;101278.53;7363253;19;20477;-61
2024/02/20 09:26:04;;;;;;;0.10;0.10;;;;;;;12.54;72.08;101247.03;7368212;19;20742;-61
2024/02/20 09:28:29;;;;;;;0.10;0.10;;;;;;;12.55;72.17;101248.75;7363743;19;20010;-61
2024/02/20 09:30:55;;;;;;;0.10;0.10;;;;;;;12.57;72.14;101275.78;7364856;19;20898;-61
2024/02/20 09:33:20;;;;;;;0.10;0.10;;;;;;;12.62;72.13;101274.81;7358656;19;20011;-60
2024/02/20 09:35:46;;;;;;;0.10;0.10;;;;;;;12.67;72.54;101278.19;7366290;19;20494;-61
2024/02/20 09:38:12;;;;;;;0.10;0.10;;;;;;;12.72;72.19;101252.75;7366988;19;20010;-61
2024/02/20 09:40:38;;;;;;;0.10;0.10;;;;;;;12.78;72.41;101274.47;7361560;19;20014;-61
2024/02/20 09:43:03;;;;;;;0.10;0.10;;;;;;;12.86;72.40;101256.78;7362020;19;20013;-60
2024/02/20 09:45:30;;;;;;;0.10;0.10;;;;;;;12.93;72.42;101253.16;7361969;19;20085;-63
2024/02/20 09:47:56;;;;;;;0.10;0.10;;;;;;;12.94;72.40;101233.88;7366141;19;20014;-61
2024/02/20 09:50:22;;;;;;;0.10;0.10;;;;;;;13.10;72.38;101242.25;7366279;19;20010;-61
2024/02/20 09:52:51;;;;;;;0.10;0.10;;;;;;;12.97;71.79;101218.06;7366294;19;20010;-60
2024/02/20 09:55:21;;;;;;;0.10;0.10;;;;;;;13.23;72.21;101231.44;7359850;19;20019;-60
2024/02/20 09:57:50;;;;;;;0.10;0.10;;;;;;;13.27;72.01;101216.47;7366133;19;20007;-61
2024/02/20 10:00:18;;;;;;;0.10;0.10;;;;;;;13.35;72.04;101238.13;7364424;19;20743;-61
2024/02/20 10:02:44;;;;;;;;;;;;;;;13.44;72.70;101223.94;7370660;19;20343;-61
2024/02/20 10:05:17;;;;;;;0.10;0.10;;;;;;;13.46;71.65;101222.13;7365522;19;19915;-61
2024/02/20 10:07:43;;;;;;;0.20;0.20;;;;;;;13.46;71.61;101201.13;7361880;19;20007;-60
2024/02/20 10:10:10;;;;;;;0.10;0.10;;;;;;;13.53;71.28;101221.03;7365178;19;20055;-61
2024/02/20 10:12:37;;;;;;;0.10;0.10;;;;;;;13.57;71.44;101209.56;7361194;19;21114;-60
2024/02/20 10:15:09;;;;;;;0.13;0.13;;;;;;;13.64;71.22;101199.78;7366091;19;20094;-60
2024/02/20 10:17:35;;;;;;;0.10;0.10;;;;;;;13.67;71.64;101215.44;7364086;19;20027;-61
2024/02/20 10:20:19;;;;;;;0.10;0.10;;;;;;;13.80;71.79;101161.69;7363228;19;20014;-61
2024/02/20 10:22:45;;;;;;;0.10;0.10;;;;;;;13.83;71.71;101158.97;7364722;19;20804;-60
2024/02/20 10:25:12;;;;;;;0.10;0.10;;;;;;;13.91;71.07;101161.38;7355400;19;20023;-60
2024/02/20 10:27:38;;;;;;;0.10;0.10;;;;;;;13.92;70.95;101163.09;7365526;19;20015;-62
2024/02/20 10:30:05;;;;;;;0.10;0.10;;;;;;;14.04;70.89;101160.13;7360956;19;20508;-61
2024/02/20 10:32:36;;;;;;;0.10;0.10;;;;;;;14.08;70.33;101153.84;7360081;19;20014;-61
2024/02/20 10:35:03;;;;;;;0.20;0.20;;;;;;;14.15;70.27;101150.16;7365352;19;20744;-63
2024/02/20 10:37:29;;;;;;;0.10;0.10;;;;;;;14.19;70.18;101154.41;7363330;19;20027;-61
2024/02/20 10:40:11;;;;;;;0.20;0.20;;;;;;;14.15;71.10;101137.03;7362260;19;20011;-61
2024/02/20 10:42:38;;;;;;;0.10;0.10;;;;;;;14.25;70.47;101141.09;7360892;19;20010;-60
2024/02/20 10:45:07;;;;;;;0.10;0.10;;;;;;;14.33;70.99;101174.13;7361529;19;20051;-60
2024/02/20 10:47:36;;;;;;;0.10;0.10;;;;;;;14.25;70.43;101167.38;7366681;19;20527;-62
2024/02/20 10:50:05;;;;;;;0.10;0.10;;;;;;;14.53;70.45;101192.81;7357680;19;20417;-61
2024/02/20 10:52:33;;;;;;;0.10;0.10;;;;;;;14.63;70.53;101182.88;7347095;19;20034;-61
2024/02/20 10:55:11;;;;;;;0.13;0.13;;;;;;;14.83;70.17;101193.59;7361327;19;20010;-61
2024/02/20 10:57:38;;;;;;;0.10;0.10;;;;;;;14.96;69.58;101186.19;7366389;19;20021;-61
2024/02/20 11:00:09;;;;;;;0.20;0.20;;;;;;;15.16;69.91;101199.53;7357519;19;20014;-61
2024/02/20 11:02:46;;;;;;;0.20;0.20;;;;;;;15.23;69.87;101185.25;7362106;19;20044;-61
2024/02/20 11:05:17;;;;;;;0.10;0.10;;;;;;;15.20;68.90;101163.44;7361478;19;20485;-61
2024/02/20 11:07:44;;;;;;;0.10;0.10;;;;;;;15.34;69.20;101165.59;7364513;19;20018;-61
2024/02/20 11:10:21;;;;;;;0.10;0.10;;;;;;;15.34;69.55;101147.19;7363687;19;20074;-61
2024/02/20 11:12:49;;;;;;;;;;;;;;;15.53;70.27;101166.66;7364211;19;20017;-60
2024/02/20 11:15:22;;;;;;;0.10;0.10;;;;;;;15.45;68.77;101171.34;7352235;19;20389;-61
2024/02/20 11:17:51;;;;;;;0.10;0.10;;;;;;;15.38;67.46;101157.53;7362967;19;20446;-61
2024/02/20 11:20:23;;;;;;;0.10;0.10;;;;;;;15.45;67.86;101169.56;7360891;19;20013;-61
2024/02/20 11:22:49;;;;;;;0.10;0.10;;;;;;;15.42;67.88;101168.81;7357354;19;20106;-61